sensor_id;sensor_type;location;lat;lon;timestamp;P1;durP1;ratioP1;P2;durP2;ratioP2
44532;SDS011;48673;53.016;-2.258;2022-08-19T00:01:59;12.55;;;2.20;;
44532;SDS011;48673;53.016;-2.258;2022-08-19T00:06:59;6.55;;;2.30;;
44532;SDS011;48673;53.016;-2.258;2022-08-19T00:09:28;5.65;;;2.85;;
44532;SDS011;48673;53.016;-2.258;2022-08-19T00:11:56;5.55;;;2.25;;
44532;SDS011;48673;53.016;-2.258;2022-08-19T00:14:27;8.02;;;2.63;;
44532;SDS011;48673;53.016;-2.258;2022-08-19T00:17:02;7.10;;;1.70;;
44532;SDS011;48673;53.016;-2.258;2022-08-19T00:19:33;4.20;;;2.22;;
44532;SDS011;48673;53.016;-2.258;2022-08-19T00:22:02;7.78;;;3.08;;
44532;SDS011;48673;53.016;-2.258;2022-08-19T00:24:32;8.90;;;3.22;;
44532;SDS011;48673;53.016;-2.258;2022-08-19T00:27:00;8.23;;;3.10;;
44532;SDS011;48673;53.016;-2.258;2022-08-19T00:29:49;10.35;;;3.20;;
44532;SDS011;48673;53.016;-2.258;2022-08-19T00:32:19;10.40;;;4.30;;
44532;SDS011;48673;53.016;-2.258;2022-08-19T00:34:47;11.98;;;4.70;;
44532;SDS011;48673;53.016;-2.258;2022-08-19T00:37:15;10.80;;;4.47;;
44532;SDS011;48673;53.016;-2.258;2022-08-19T00:39:43;10.75;;;4.70;;
44532;SDS011;48673;53.016;-2.258;2022-08-19T00:42:17;11.63;;;4.57;;
44532;SDS011;48673;53.016;-2.258;2022-08-19T00:44:46;12.60;;;2.90;;
44532;SDS011;48673;53.016;-2.258;2022-08-19T00:47:15;15.38;;;3.17;;
44532;SDS011;48673;53.016;-2.258;2022-08-19T00:49:48;12.85;;;2.67;;
44532;SDS011;48673;53.016;-2.258;2022-08-19T00:52:21;14.95;;;4.25;;
44532;SDS011;48673;53.016;-2.258;2022-08-19T00:55:01;14.80;;;2.63;;
44532;SDS011;48673;53.016;-2.258;2022-08-19T00:57:36;13.13;;;3.95;;
44532;SDS011;48673;53.016;-2.258;2022-08-19T01:00:08;18.55;;;3.78;;
44532;SDS011;48673;53.016;-2.258;2022-08-19T01:02:39;14.65;;;3.42;;
44532;SDS011;48673;53.016;-2.258;2022-08-19T01:05:10;13.02;;;2.55;;
44532;SDS011;48673;53.016;-2.258;2022-08-19T01:07:42;19.40;;;3.50;;
44532;SDS011;48673;53.016;-2.258;2022-08-19T01:12:42;16.17;;;2.60;;
44532;SDS011;48673;53.016;-2.258;2022-08-19T01:17:42;18.15;;;4.03;;
44532;SDS011;48673;53.016;-2.258;2022-08-19T01:20:15;11.25;;;2.85;;
44532;SDS011;48673;53.016;-2.258;2022-08-19T01:22:49;21.80;;;2.85;;
44532;SDS011;48673;53.016;-2.258;2022-08-19T01:25:22;14.13;;;3.13;;
44532;SDS011;48673;53.016;-2.258;2022-08-19T01:27:54;14.57;;;2.60;;
44532;SDS011;48673;53.016;-2.258;2022-08-19T01:30:35;12.05;;;2.92;;
44532;SDS011;48673;53.016;-2.258;2022-08-19T01:33:17;11.93;;;2.90;;
44532;SDS011;48673;53.016;-2.258;2022-08-19T01:35:48;16.95;;;2.33;;
44532;SDS011;48673;53.016;-2.258;2022-08-19T01:38:20;20.70;;;3.75;;
44532;SDS011;48673;53.016;-2.258;2022-08-19T01:40:52;12.35;;;3.58;;
44532;SDS011;48673;53.016;-2.258;2022-08-19T01:43:21;15.40;;;2.75;;
44532;SDS011;48673;53.016;-2.258;2022-08-19T01:45:52;14.57;;;2.90;;
44532;SDS011;48673;53.016;-2.258;2022-08-19T01:48:20;12.07;;;2.80;;
44532;SDS011;48673;53.016;-2.258;2022-08-19T01:53:17;11.20;;;2.45;;
44532;SDS011;48673;53.016;-2.258;2022-08-19T01:55:45;18.80;;;2.50;;
44532;SDS011;48673;53.016;-2.258;2022-08-19T01:58:19;21.02;;;3.08;;
44532;SDS011;48673;53.016;-2.258;2022-08-19T02:00:52;13.05;;;2.65;;
44532;SDS011;48673;53.016;-2.258;2022-08-19T02:03:23;10.57;;;2.15;;
44532;SDS011;48673;53.016;-2.258;2022-08-19T02:05:58;19.53;;;3.40;;
44532;SDS011;48673;53.016;-2.258;2022-08-19T02:08:27;13.48;;;2.38;;
44532;SDS011;48673;53.016;-2.258;2022-08-19T02:10:59;13.40;;;2.63;;
44532;SDS011;48673;53.016;-2.258;2022-08-19T02:13:27;18.88;;;2.10;;
44532;SDS011;48673;53.016;-2.258;2022-08-19T02:15:55;12.13;;;2.13;;
44532;SDS011;48673;53.016;-2.258;2022-08-19T02:18:24;15.55;;;2.35;;
44532;SDS011;48673;53.016;-2.258;2022-08-19T02:20:55;20.05;;;2.78;;
44532;SDS011;48673;53.016;-2.258;2022-08-19T02:23:23;23.38;;;4.05;;
44532;SDS011;48673;53.016;-2.258;2022-08-19T02:25:51;19.08;;;2.60;;
44532;SDS011;48673;53.016;-2.258;2022-08-19T02:28:19;11.55;;;2.22;;
44532;SDS011;48673;53.016;-2.258;2022-08-19T02:30:48;14.82;;;2.38;;
44532;SDS011;48673;53.016;-2.258;2022-08-19T02:33:16;11.00;;;3.67;;
44532;SDS011;48673;53.016;-2.258;2022-08-19T02:35:44;22.73;;;2.95;;
44532;SDS011;48673;53.016;-2.258;2022-08-19T02:41:04;20.60;;;1.98;;
44532;SDS011;48673;53.016;-2.258;2022-08-19T02:43:39;11.88;;;2.40;;
44532;SDS011;48673;53.016;-2.258;2022-08-19T02:46:28;18.73;;;2.53;;
44532;SDS011;48673;53.016;-2.258;2022-08-19T02:49:00;17.63;;;2.53;;
44532;SDS011;48673;53.016;-2.258;2022-08-19T02:51:32;13.63;;;2.70;;
44532;SDS011;48673;53.016;-2.258;2022-08-19T02:54:06;12.63;;;1.83;;
44532;SDS011;48673;53.016;-2.258;2022-08-19T02:56:37;12.52;;;2.03;;
44532;SDS011;48673;53.016;-2.258;2022-08-19T02:59:07;9.05;;;2.58;;
44532;SDS011;48673;53.016;-2.258;2022-08-19T03:01:40;17.33;;;3.58;;
44532;SDS011;48673;53.016;-2.258;2022-08-19T03:04:11;13.35;;;3.75;;
44532;SDS011;48673;53.016;-2.258;2022-08-19T03:06:43;15.68;;;2.13;;
44532;SDS011;48673;53.016;-2.258;2022-08-19T03:09:16;17.58;;;3.80;;
44532;SDS011;48673;53.016;-2.258;2022-08-19T03:11:45;15.88;;;3.35;;
44532;SDS011;48673;53.016;-2.258;2022-08-19T03:14:14;24.15;;;2.63;;
44532;SDS011;48673;53.016;-2.258;2022-08-19T03:16:43;14.85;;;2.88;;
44532;SDS011;48673;53.016;-2.258;2022-08-19T03:19:15;10.63;;;2.63;;
44532;SDS011;48673;53.016;-2.258;2022-08-19T03:21:44;16.92;;;2.97;;
44532;SDS011;48673;53.016;-2.258;2022-08-19T03:24:13;15.07;;;2.42;;
44532;SDS011;48673;53.016;-2.258;2022-08-19T03:26:44;14.95;;;3.78;;
44532;SDS011;48673;53.016;-2.258;2022-08-19T03:29:15;10.77;;;2.00;;
44532;SDS011;48673;53.016;-2.258;2022-08-19T03:32:00;13.43;;;3.00;;
44532;SDS011;48673;53.016;-2.258;2022-08-19T03:34:32;18.75;;;2.92;;
44532;SDS011;48673;53.016;-2.258;2022-08-19T03:37:07;13.52;;;3.10;;
44532;SDS011;48673;53.016;-2.258;2022-08-19T03:39:38;13.95;;;2.55;;
44532;SDS011;48673;53.016;-2.258;2022-08-19T03:42:10;21.40;;;2.60;;
44532;SDS011;48673;53.016;-2.258;2022-08-19T03:45:00;9.55;;;2.60;;
44532;SDS011;48673;53.016;-2.258;2022-08-19T03:47:28;13.40;;;2.65;;
44532;SDS011;48673;53.016;-2.258;2022-08-19T03:49:57;16.90;;;3.05;;
44532;SDS011;48673;53.016;-2.258;2022-08-19T03:52:25;12.68;;;3.17;;
44532;SDS011;48673;53.016;-2.258;2022-08-19T03:54:52;22.60;;;3.45;;
44532;SDS011;48673;53.016;-2.258;2022-08-19T03:57:21;23.83;;;3.28;;
44532;SDS011;48673;53.016;-2.258;2022-08-19T03:59:59;15.95;;;3.80;;
44532;SDS011;48673;53.016;-2.258;2022-08-19T04:02:40;19.48;;;3.47;;
44532;SDS011;48673;53.016;-2.258;2022-08-19T04:05:24;11.15;;;2.50;;
44532;SDS011;48673;53.016;-2.258;2022-08-19T04:07:55;28.73;;;3.47;;
44532;SDS011;48673;53.016;-2.258;2022-08-19T04:10:26;18.40;;;3.28;;
44532;SDS011;48673;53.016;-2.258;2022-08-19T04:12:55;17.60;;;2.67;;
44532;SDS011;48673;53.016;-2.258;2022-08-19T04:15:23;20.08;;;3.83;;
44532;SDS011;48673;53.016;-2.258;2022-08-19T04:17:52;10.43;;;1.90;;
44532;SDS011;48673;53.016;-2.258;2022-08-19T04:20:21;17.73;;;2.45;;
44532;SDS011;48673;53.016;-2.258;2022-08-19T04:22:49;19.58;;;3.03;;
44532;SDS011;48673;53.016;-2.258;2022-08-19T04:25:17;16.73;;;2.60;;
44532;SDS011;48673;53.016;-2.258;2022-08-19T04:27:46;18.45;;;2.33;;
44532;SDS011;48673;53.016;-2.258;2022-08-19T04:30:14;15.68;;;4.28;;
44532;SDS011;48673;53.016;-2.258;2022-08-19T04:32:42;12.32;;;2.60;;
44532;SDS011;48673;53.016;-2.258;2022-08-19T04:35:11;17.33;;;3.25;;
44532;SDS011;48673;53.016;-2.258;2022-08-19T04:37:44;18.35;;;3.40;;
44532;SDS011;48673;53.016;-2.258;2022-08-19T04:40:12;22.13;;;3.15;;
44532;SDS011;48673;53.016;-2.258;2022-08-19T04:42:59;15.32;;;3.20;;
44532;SDS011;48673;53.016;-2.258;2022-08-19T04:45:28;16.60;;;2.60;;
44532;SDS011;48673;53.016;-2.258;2022-08-19T04:48:10;12.02;;;3.40;;
44532;SDS011;48673;53.016;-2.258;2022-08-19T04:50:54;14.98;;;2.38;;
44532;SDS011;48673;53.016;-2.258;2022-08-19T04:53:29;14.93;;;3.03;;
44532;SDS011;48673;53.016;-2.258;2022-08-19T04:56:08;16.25;;;2.53;;
44532;SDS011;48673;53.016;-2.258;2022-08-19T04:58:42;11.73;;;2.80;;
44532;SDS011;48673;53.016;-2.258;2022-08-19T05:01:17;10.20;;;1.85;;
44532;SDS011;48673;53.016;-2.258;2022-08-19T05:03:47;10.65;;;1.83;;
44532;SDS011;48673;53.016;-2.258;2022-08-19T05:06:16;10.30;;;2.33;;
44532;SDS011;48673;53.016;-2.258;2022-08-19T05:08:46;25.35;;;4.05;;
44532;SDS011;48673;53.016;-2.258;2022-08-19T05:11:21;16.38;;;2.70;;
44532;SDS011;48673;53.016;-2.258;2022-08-19T05:13:53;14.85;;;2.33;;
44532;SDS011;48673;53.016;-2.258;2022-08-19T05:16:24;12.32;;;2.20;;
44532;SDS011;48673;53.016;-2.258;2022-08-19T05:18:54;23.70;;;4.53;;
44532;SDS011;48673;53.016;-2.258;2022-08-19T05:21:42;21.02;;;3.28;;
44532;SDS011;48673;53.016;-2.258;2022-08-19T05:24:29;17.33;;;2.95;;
44532;SDS011;48673;53.016;-2.258;2022-08-19T05:27:01;11.27;;;1.83;;
44532;SDS011;48673;53.016;-2.258;2022-08-19T05:29:29;11.27;;;3.28;;
44532;SDS011;48673;53.016;-2.258;2022-08-19T05:32:03;19.58;;;3.10;;
44532;SDS011;48673;53.016;-2.258;2022-08-19T05:34:35;11.02;;;2.30;;
44532;SDS011;48673;53.016;-2.258;2022-08-19T05:37:05;21.02;;;4.70;;
44532;SDS011;48673;53.016;-2.258;2022-08-19T05:39:35;16.25;;;3.75;;
44532;SDS011;48673;53.016;-2.258;2022-08-19T05:42:05;13.05;;;2.72;;
44532;SDS011;48673;53.016;-2.258;2022-08-19T05:44:36;15.80;;;3.45;;
44532;SDS011;48673;53.016;-2.258;2022-08-19T05:47:11;10.15;;;2.20;;
44532;SDS011;48673;53.016;-2.258;2022-08-19T05:49:42;14.18;;;3.13;;
44532;SDS011;48673;53.016;-2.258;2022-08-19T05:52:13;15.43;;;2.72;;
44532;SDS011;48673;53.016;-2.258;2022-08-19T05:54:45;19.80;;;4.03;;
44532;SDS011;48673;53.016;-2.258;2022-08-19T05:57:18;20.10;;;4.25;;
44532;SDS011;48673;53.016;-2.258;2022-08-19T05:59:46;20.17;;;4.63;;
44532;SDS011;48673;53.016;-2.258;2022-08-19T06:02:23;13.55;;;3.17;;
44532;SDS011;48673;53.016;-2.258;2022-08-19T06:04:55;16.05;;;3.03;;
44532;SDS011;48673;53.016;-2.258;2022-08-19T06:07:23;12.75;;;3.30;;
44532;SDS011;48673;53.016;-2.258;2022-08-19T06:09:51;14.68;;;3.10;;
44532;SDS011;48673;53.016;-2.258;2022-08-19T06:12:27;24.48;;;3.08;;
44532;SDS011;48673;53.016;-2.258;2022-08-19T06:15:03;22.63;;;3.38;;
44532;SDS011;48673;53.016;-2.258;2022-08-19T06:17:36;13.68;;;2.65;;
44532;SDS011;48673;53.016;-2.258;2022-08-19T06:20:07;14.43;;;2.42;;
44532;SDS011;48673;53.016;-2.258;2022-08-19T06:22:41;8.45;;;2.45;;
44532;SDS011;48673;53.016;-2.258;2022-08-19T06:25:11;16.63;;;3.15;;
44532;SDS011;48673;53.016;-2.258;2022-08-19T06:27:40;15.27;;;2.92;;
44532;SDS011;48673;53.016;-2.258;2022-08-19T06:30:29;12.18;;;2.58;;
44532;SDS011;48673;53.016;-2.258;2022-08-19T06:32:56;15.57;;;3.97;;
44532;SDS011;48673;53.016;-2.258;2022-08-19T06:35:24;13.32;;;3.50;;
44532;SDS011;48673;53.016;-2.258;2022-08-19T06:37:52;15.57;;;4.68;;
44532;SDS011;48673;53.016;-2.258;2022-08-19T06:40:20;17.73;;;3.95;;
44532;SDS011;48673;53.016;-2.258;2022-08-19T06:42:50;19.58;;;3.55;;
44532;SDS011;48673;53.016;-2.258;2022-08-19T06:45:24;17.90;;;3.33;;
44532;SDS011;48673;53.016;-2.258;2022-08-19T06:48:06;13.10;;;2.45;;
44532;SDS011;48673;53.016;-2.258;2022-08-19T06:50:34;16.60;;;3.65;;
44532;SDS011;48673;53.016;-2.258;2022-08-19T06:53:06;18.33;;;4.35;;
44532;SDS011;48673;53.016;-2.258;2022-08-19T06:55:34;17.77;;;3.40;;
44532;SDS011;48673;53.016;-2.258;2022-08-19T06:58:02;14.82;;;3.70;;
44532;SDS011;48673;53.016;-2.258;2022-08-19T07:00:32;20.10;;;4.78;;
44532;SDS011;48673;53.016;-2.258;2022-08-19T07:05:37;13.68;;;2.30;;
44532;SDS011;48673;53.016;-2.258;2022-08-19T07:08:12;19.95;;;4.85;;
44532;SDS011;48673;53.016;-2.258;2022-08-19T07:10:44;12.90;;;2.35;;
44532;SDS011;48673;53.016;-2.258;2022-08-19T07:13:12;15.07;;;2.38;;
44532;SDS011;48673;53.016;-2.258;2022-08-19T07:15:40;13.63;;;2.33;;
44532;SDS011;48673;53.016;-2.258;2022-08-19T07:18:08;14.13;;;3.22;;
44532;SDS011;48673;53.016;-2.258;2022-08-19T07:20:38;18.27;;;2.60;;
44532;SDS011;48673;53.016;-2.258;2022-08-19T07:23:08;17.67;;;3.50;;
44532;SDS011;48673;53.016;-2.258;2022-08-19T07:25:42;16.67;;;3.60;;
44532;SDS011;48673;53.016;-2.258;2022-08-19T07:28:18;23.55;;;3.65;;
44532;SDS011;48673;53.016;-2.258;2022-08-19T07:30:51;16.40;;;2.60;;
44532;SDS011;48673;53.016;-2.258;2022-08-19T07:33:19;12.55;;;2.40;;
44532;SDS011;48673;53.016;-2.258;2022-08-19T07:35:47;18.45;;;2.70;;
44532;SDS011;48673;53.016;-2.258;2022-08-19T07:38:16;20.92;;;2.85;;
44532;SDS011;48673;53.016;-2.258;2022-08-19T07:40:48;18.27;;;3.30;;
44532;SDS011;48673;53.016;-2.258;2022-08-19T07:43:15;23.00;;;4.18;;
44532;SDS011;48673;53.016;-2.258;2022-08-19T07:45:49;9.65;;;1.80;;
44532;SDS011;48673;53.016;-2.258;2022-08-19T07:48:17;19.27;;;2.07;;
44532;SDS011;48673;53.016;-2.258;2022-08-19T07:50:46;22.55;;;3.50;;
44532;SDS011;48673;53.016;-2.258;2022-08-19T07:53:15;18.20;;;3.63;;
44532;SDS011;48673;53.016;-2.258;2022-08-19T07:55:44;14.68;;;2.35;;
44532;SDS011;48673;53.016;-2.258;2022-08-19T07:58:15;25.08;;;2.90;;
44532;SDS011;48673;53.016;-2.258;2022-08-19T08:00:48;19.52;;;2.90;;
44532;SDS011;48673;53.016;-2.258;2022-08-19T08:03:18;13.98;;;2.17;;
44532;SDS011;48673;53.016;-2.258;2022-08-19T08:06:10;14.70;;;2.65;;
44532;SDS011;48673;53.016;-2.258;2022-08-19T08:08:58;21.80;;;3.05;;
44532;SDS011;48673;53.016;-2.258;2022-08-19T08:11:44;17.10;;;3.30;;
44532;SDS011;48673;53.016;-2.258;2022-08-19T08:14:22;21.30;;;4.80;;
44532;SDS011;48673;53.016;-2.258;2022-08-19T08:17:01;22.05;;;3.28;;
44532;SDS011;48673;53.016;-2.258;2022-08-19T08:19:37;20.65;;;2.60;;
44532;SDS011;48673;53.016;-2.258;2022-08-19T08:22:05;17.73;;;2.45;;
44532;SDS011;48673;53.016;-2.258;2022-08-19T08:24:34;12.60;;;2.17;;
44532;SDS011;48673;53.016;-2.258;2022-08-19T08:27:02;13.10;;;2.38;;
44532;SDS011;48673;53.016;-2.258;2022-08-19T08:29:37;27.48;;;3.00;;
44532;SDS011;48673;53.016;-2.258;2022-08-19T08:32:11;12.60;;;1.90;;
44532;SDS011;48673;53.016;-2.258;2022-08-19T08:34:41;19.08;;;4.68;;
44532;SDS011;48673;53.016;-2.258;2022-08-19T08:37:14;23.95;;;3.95;;
44532;SDS011;48673;53.016;-2.258;2022-08-19T08:39:42;12.20;;;1.93;;
44532;SDS011;48673;53.016;-2.258;2022-08-19T08:45:14;14.15;;;2.45;;
44532;SDS011;48673;53.016;-2.258;2022-08-19T08:47:45;18.20;;;3.35;;
44532;SDS011;48673;53.016;-2.258;2022-08-19T08:50:27;14.05;;;2.40;;
44532;SDS011;48673;53.016;-2.258;2022-08-19T08:53:04;10.27;;;2.55;;
44532;SDS011;48673;53.016;-2.258;2022-08-19T08:55:35;11.57;;;3.13;;
44532;SDS011;48673;53.016;-2.258;2022-08-19T08:58:04;11.82;;;2.10;;
44532;SDS011;48673;53.016;-2.258;2022-08-19T09:00:46;13.45;;;2.78;;
44532;SDS011;48673;53.016;-2.258;2022-08-19T09:11:00;18.77;;;3.22;;
44532;SDS011;48673;53.016;-2.258;2022-08-19T09:16:19;15.85;;;2.22;;
44532;SDS011;48673;53.016;-2.258;2022-08-19T09:25:52;19.45;;;3.20;;
44532;SDS011;48673;53.016;-2.258;2022-08-19T09:28:30;15.23;;;2.38;;
44532;SDS011;48673;53.016;-2.258;2022-08-19T09:30:58;16.75;;;2.83;;
44532;SDS011;48673;53.016;-2.258;2022-08-19T09:33:30;16.20;;;2.60;;
44532;SDS011;48673;53.016;-2.258;2022-08-19T09:39:03;15.40;;;3.10;;
44532;SDS011;48673;53.016;-2.258;2022-08-19T09:41:42;11.00;;;1.63;;
44532;SDS011;48673;53.016;-2.258;2022-08-19T09:44:15;10.13;;;1.60;;
44532;SDS011;48673;53.016;-2.258;2022-08-19T09:46:45;11.18;;;2.55;;
44532;SDS011;48673;53.016;-2.258;2022-08-19T09:49:18;14.70;;;2.92;;
44532;SDS011;48673;53.016;-2.258;2022-08-19T09:51:50;12.35;;;2.35;;
44532;SDS011;48673;53.016;-2.258;2022-08-19T09:54:33;13.57;;;1.17;;
44532;SDS011;48673;53.016;-2.258;2022-08-19T09:57:03;14.35;;;2.65;;
44532;SDS011;48673;53.016;-2.258;2022-08-19T09:59:34;14.35;;;2.67;;
44532;SDS011;48673;53.016;-2.258;2022-08-19T10:02:03;12.57;;;1.85;;
44532;SDS011;48673;53.016;-2.258;2022-08-19T10:04:37;4.45;;;0.93;;
44532;SDS011;48673;53.016;-2.258;2022-08-19T10:07:24;9.10;;;1.25;;
44532;SDS011;48673;53.016;-2.258;2022-08-19T10:10:03;6.40;;;0.93;;
44532;SDS011;48673;53.016;-2.258;2022-08-19T10:12:36;11.07;;;1.65;;
44532;SDS011;48673;53.016;-2.258;2022-08-19T10:15:04;7.07;;;1.27;;
44532;SDS011;48673;53.016;-2.258;2022-08-19T10:17:36;10.85;;;2.22;;
44532;SDS011;48673;53.016;-2.258;2022-08-19T10:20:04;5.35;;;1.40;;
44532;SDS011;48673;53.016;-2.258;2022-08-19T10:22:34;5.82;;;1.23;;
44532;SDS011;48673;53.016;-2.258;2022-08-19T10:25:05;11.32;;;1.75;;
44532;SDS011;48673;53.016;-2.258;2022-08-19T10:27:33;16.15;;;2.83;;
44532;SDS011;48673;53.016;-2.258;2022-08-19T10:30:06;14.40;;;2.35;;
44532;SDS011;48673;53.016;-2.258;2022-08-19T10:32:36;11.95;;;2.05;;
44532;SDS011;48673;53.016;-2.258;2022-08-19T10:35:13;13.30;;;1.67;;
44532;SDS011;48673;53.016;-2.258;2022-08-19T10:37:48;10.98;;;2.83;;
44532;SDS011;48673;53.016;-2.258;2022-08-19T10:40:28;6.80;;;1.75;;
44532;SDS011;48673;53.016;-2.258;2022-08-19T10:42:58;6.45;;;1.15;;
44532;SDS011;48673;53.016;-2.258;2022-08-19T10:45:43;5.32;;;0.65;;
44532;SDS011;48673;53.016;-2.258;2022-08-19T10:48:21;11.65;;;1.27;;
44532;SDS011;48673;53.016;-2.258;2022-08-19T10:50:50;5.43;;;0.95;;
44532;SDS011;48673;53.016;-2.258;2022-08-19T10:53:58;7.03;;;1.10;;
44532;SDS011;48673;53.016;-2.258;2022-08-19T10:56:28;10.45;;;1.90;;
44532;SDS011;48673;53.016;-2.258;2022-08-19T10:59:14;10.50;;;3.25;;
44532;SDS011;48673;53.016;-2.258;2022-08-19T11:01:43;8.43;;;1.83;;
44532;SDS011;48673;53.016;-2.258;2022-08-19T11:04:18;5.60;;;1.00;;
44532;SDS011;48673;53.016;-2.258;2022-08-19T11:06:56;5.35;;;1.10;;
44532;SDS011;48673;53.016;-2.258;2022-08-19T11:09:29;10.60;;;1.63;;
44532;SDS011;48673;53.016;-2.258;2022-08-19T11:12:01;7.78;;;1.17;;
44532;SDS011;48673;53.016;-2.258;2022-08-19T11:14:31;11.00;;;2.25;;
44532;SDS011;48673;53.016;-2.258;2022-08-19T11:17:02;5.68;;;1.02;;
44532;SDS011;48673;53.016;-2.258;2022-08-19T11:19:30;6.30;;;1.30;;
44532;SDS011;48673;53.016;-2.258;2022-08-19T11:25:22;6.53;;;1.55;;
44532;SDS011;48673;53.016;-2.258;2022-08-19T11:27:52;11.13;;;2.05;;
44532;SDS011;48673;53.016;-2.258;2022-08-19T11:30:21;7.80;;;1.27;;
44532;SDS011;48673;53.016;-2.258;2022-08-19T11:33:00;13.18;;;2.15;;
44532;SDS011;48673;53.016;-2.258;2022-08-19T11:35:53;5.53;;;0.65;;
44532;SDS011;48673;53.016;-2.258;2022-08-19T11:38:25;9.15;;;1.63;;
44532;SDS011;48673;53.016;-2.258;2022-08-19T11:40:55;6.80;;;1.20;;
44532;SDS011;48673;53.016;-2.258;2022-08-19T11:43:29;3.88;;;1.05;;
44532;SDS011;48673;53.016;-2.258;2022-08-19T11:46:04;11.57;;;1.80;;
44532;SDS011;48673;53.016;-2.258;2022-08-19T11:48:34;4.88;;;1.55;;
44532;SDS011;48673;53.016;-2.258;2022-08-19T11:51:04;6.65;;;1.15;;
44532;SDS011;48673;53.016;-2.258;2022-08-19T11:53:37;4.60;;;1.08;;
44532;SDS011;48673;53.016;-2.258;2022-08-19T11:56:07;3.90;;;0.63;;
44532;SDS011;48673;53.016;-2.258;2022-08-19T11:58:38;5.97;;;1.23;;
44532;SDS011;48673;53.016;-2.258;2022-08-19T12:01:10;8.20;;;0.90;;
44532;SDS011;48673;53.016;-2.258;2022-08-19T12:03:45;6.10;;;0.70;;
44532;SDS011;48673;53.016;-2.258;2022-08-19T12:09:27;4.78;;;0.90;;
44532;SDS011;48673;53.016;-2.258;2022-08-19T12:12:26;4.82;;;0.60;;
44532;SDS011;48673;53.016;-2.258;2022-08-19T12:15:15;5.18;;;1.13;;
44532;SDS011;48673;53.016;-2.258;2022-08-19T12:17:47;5.57;;;1.17;;
44532;SDS011;48673;53.016;-2.258;2022-08-19T12:20:15;8.70;;;1.55;;
44532;SDS011;48673;53.016;-2.258;2022-08-19T12:22:44;4.35;;;0.93;;
44532;SDS011;48673;53.016;-2.258;2022-08-19T12:25:13;5.07;;;0.60;;
44532;SDS011;48673;53.016;-2.258;2022-08-19T12:27:48;5.72;;;0.70;;
44532;SDS011;48673;53.016;-2.258;2022-08-19T12:30:24;3.92;;;0.75;;
44532;SDS011;48673;53.016;-2.258;2022-08-19T12:32:53;6.88;;;1.10;;
44532;SDS011;48673;53.016;-2.258;2022-08-19T12:35:21;2.72;;;0.60;;
44532;SDS011;48673;53.016;-2.258;2022-08-19T12:37:55;6.57;;;1.88;;
44532;SDS011;48673;53.016;-2.258;2022-08-19T12:40:23;5.85;;;0.75;;
44532;SDS011;48673;53.016;-2.258;2022-08-19T12:42:53;7.97;;;1.65;;
44532;SDS011;48673;53.016;-2.258;2022-08-19T12:45:21;10.27;;;1.25;;
44532;SDS011;48673;53.016;-2.258;2022-08-19T12:47:49;7.22;;;0.88;;
44532;SDS011;48673;53.016;-2.258;2022-08-19T12:50:21;5.32;;;0.80;;
44532;SDS011;48673;53.016;-2.258;2022-08-19T12:52:49;7.93;;;0.93;;
44532;SDS011;48673;53.016;-2.258;2022-08-19T12:55:17;4.00;;;0.97;;
44532;SDS011;48673;53.016;-2.258;2022-08-19T12:57:45;8.10;;;0.93;;
44532;SDS011;48673;53.016;-2.258;2022-08-19T13:00:16;4.97;;;0.68;;
44532;SDS011;48673;53.016;-2.258;2022-08-19T13:02:49;5.53;;;1.08;;
44532;SDS011;48673;53.016;-2.258;2022-08-19T13:05:23;5.53;;;0.63;;
44532;SDS011;48673;53.016;-2.258;2022-08-19T13:07:54;4.95;;;0.80;;
44532;SDS011;48673;53.016;-2.258;2022-08-19T13:10:24;4.22;;;0.50;;
44532;SDS011;48673;53.016;-2.258;2022-08-19T13:12:55;3.33;;;1.00;;
44532;SDS011;48673;53.016;-2.258;2022-08-19T13:15:26;5.78;;;0.63;;
44532;SDS011;48673;53.016;-2.258;2022-08-19T13:17:56;7.45;;;1.08;;
44532;SDS011;48673;53.016;-2.258;2022-08-19T13:20:25;6.50;;;2.42;;
44532;SDS011;48673;53.016;-2.258;2022-08-19T13:22:53;6.03;;;1.08;;
44532;SDS011;48673;53.016;-2.258;2022-08-19T13:27:49;3.75;;;0.55;;
44532;SDS011;48673;53.016;-2.258;2022-08-19T13:30:19;5.82;;;0.98;;
44532;SDS011;48673;53.016;-2.258;2022-08-19T13:33:07;4.40;;;0.40;;
44532;SDS011;48673;53.016;-2.258;2022-08-19T13:35:51;2.28;;;0.43;;
44532;SDS011;48673;53.016;-2.258;2022-08-19T13:38:24;1.42;;;0.50;;
44532;SDS011;48673;53.016;-2.258;2022-08-19T13:40:52;4.22;;;0.40;;
44532;SDS011;48673;53.016;-2.258;2022-08-19T13:45:50;2.25;;;0.45;;
44532;SDS011;48673;53.016;-2.258;2022-08-19T13:48:22;2.17;;;0.65;;
44532;SDS011;48673;53.016;-2.258;2022-08-19T13:50:53;5.53;;;0.52;;
44532;SDS011;48673;53.016;-2.258;2022-08-19T13:53:21;5.10;;;0.80;;
44532;SDS011;48673;53.016;-2.258;2022-08-19T13:55:49;2.33;;;0.40;;
44532;SDS011;48673;53.016;-2.258;2022-08-19T13:58:18;5.07;;;0.65;;
44532;SDS011;48673;53.016;-2.258;2022-08-19T14:00:45;3.50;;;0.70;;
44532;SDS011;48673;53.016;-2.258;2022-08-19T14:03:14;2.13;;;1.05;;
44532;SDS011;48673;53.016;-2.258;2022-08-19T14:05:42;1.77;;;0.50;;
44532;SDS011;48673;53.016;-2.258;2022-08-19T14:08:09;2.95;;;1.08;;
44532;SDS011;48673;53.016;-2.258;2022-08-19T14:10:37;2.47;;;0.50;;
44532;SDS011;48673;53.016;-2.258;2022-08-19T14:13:05;1.60;;;0.38;;
44532;SDS011;48673;53.016;-2.258;2022-08-19T14:15:32;1.30;;;0.38;;
44532;SDS011;48673;53.016;-2.258;2022-08-19T14:18:00;1.98;;;0.68;;
44532;SDS011;48673;53.016;-2.258;2022-08-19T14:20:28;5.18;;;0.40;;
44532;SDS011;48673;53.016;-2.258;2022-08-19T14:22:56;4.13;;;1.03;;
44532;SDS011;48673;53.016;-2.258;2022-08-19T14:25:25;2.30;;;0.40;;
44532;SDS011;48673;53.016;-2.258;2022-08-19T14:27:54;0.82;;;0.20;;
44532;SDS011;48673;53.016;-2.258;2022-08-19T14:30:24;1.88;;;0.30;;
44532;SDS011;48673;53.016;-2.258;2022-08-19T14:32:55;1.73;;;0.35;;
44532;SDS011;48673;53.016;-2.258;2022-08-19T14:35:24;0.90;;;0.20;;
44532;SDS011;48673;53.016;-2.258;2022-08-19T14:37:54;1.05;;;0.38;;
44532;SDS011;48673;53.016;-2.258;2022-08-19T14:40:26;1.50;;;0.73;;
44532;SDS011;48673;53.016;-2.258;2022-08-19T14:42:56;3.85;;;0.43;;
44532;SDS011;48673;53.016;-2.258;2022-08-19T14:45:31;1.70;;;0.30;;
44532;SDS011;48673;53.016;-2.258;2022-08-19T14:48:03;3.53;;;0.30;;
44532;SDS011;48673;53.016;-2.258;2022-08-19T14:50:34;2.35;;;0.45;;
44532;SDS011;48673;53.016;-2.258;2022-08-19T14:53:04;3.17;;;0.30;;
44532;SDS011;48673;53.016;-2.258;2022-08-19T14:55:42;2.28;;;0.45;;
44532;SDS011;48673;53.016;-2.258;2022-08-19T14:58:13;1.67;;;0.43;;
44532;SDS011;48673;53.016;-2.258;2022-08-19T15:00:57;1.05;;;0.43;;
44532;SDS011;48673;53.016;-2.258;2022-08-19T15:03:26;1.15;;;0.60;;
44532;SDS011;48673;53.016;-2.258;2022-08-19T15:05:56;2.58;;;0.30;;
44532;SDS011;48673;53.016;-2.258;2022-08-19T15:10:55;3.80;;;0.73;;
44532;SDS011;48673;53.016;-2.258;2022-08-19T15:13:25;1.65;;;0.50;;
44532;SDS011;48673;53.016;-2.258;2022-08-19T15:15:54;4.82;;;0.50;;
44532;SDS011;48673;53.016;-2.258;2022-08-19T15:18:22;5.00;;;0.60;;
44532;SDS011;48673;53.016;-2.258;2022-08-19T15:20:51;2.83;;;0.50;;
44532;SDS011;48673;53.016;-2.258;2022-08-19T15:23:19;2.00;;;0.32;;
44532;SDS011;48673;53.016;-2.258;2022-08-19T15:25:48;3.70;;;0.60;;
44532;SDS011;48673;53.016;-2.258;2022-08-19T15:28:21;2.45;;;0.47;;
44532;SDS011;48673;53.016;-2.258;2022-08-19T15:30:50;1.70;;;0.60;;
44532;SDS011;48673;53.016;-2.258;2022-08-19T15:33:19;5.03;;;0.70;;
44532;SDS011;48673;53.016;-2.258;2022-08-19T15:35:47;3.73;;;0.97;;
44532;SDS011;48673;53.016;-2.258;2022-08-19T15:38:18;5.22;;;1.45;;
44532;SDS011;48673;53.016;-2.258;2022-08-19T15:40:48;3.53;;;0.68;;
44532;SDS011;48673;53.016;-2.258;2022-08-19T15:43:19;3.85;;;0.95;;
44532;SDS011;48673;53.016;-2.258;2022-08-19T15:45:52;2.63;;;0.30;;
44532;SDS011;48673;53.016;-2.258;2022-08-19T15:48:20;1.83;;;0.40;;